メインページ
METAR-TAF:

METAR-TAF

空港 :

エドモントン国際空港

エドモントン, アルバータ州, カナダ

緯度: 53-18N, 経度: 113-35W, 海抜: 715m

現時点の気象観測

当レポートは55分前の23:00(UTC)に作成
の風 4kt
気温 29°C
湿度 37%
気圧 1014 hPa
視程: 24.1km
高度8000ftの雲はほとんどない
高度27000ftの雲はほとんどない

METAR: CYEG 162300Z 18004KT 15SM FEW080 FEW270 29/13 A2995 RMK CF1CI1 CF TR CI TR SLP139 DENSITY ALT 4500FT

時間: 17:55 (23:55 UTC)

予報

当レポートは17分前の23:38(UTC)に作成
予報は17日の 00時(UTC)から 17日の 24時(UTC)まで有効
南東の風 6kt
視程: 10km
高度8000ftの雲はほとんどない
高度26000ftの雲はほとんどない
17日の 1800時(UTC)から
東/南東の風 8kt
視程: 10km
晴天
17日の 19時(UTC)から 17日の 20時(UTC)まで徐々に
高度8000ftの雲はほとんどない
高度18000ftの雲は散在している

TAF: CYEG 162338Z 1700/1724 14006KT P6SM FEW080 FEW260 FM171800 12008KT P6SM SKC BECMG 1719/1720 FEW080 SCT180 RMK NXT FCST BY 170300Z

4,000以上の空港の気象観測と天気予報(METAR報とTAF報)

利用可能な観測所は地図上に黄色い丸と赤い丸で示す。

丸の上にカーソルを重ねると観測所名を参照できる。

次にクリックすると気象観測と天気予報を参照できる。

マップの切り替え:黒色「×」印の緑ボタンをクリックして拡大、「-」印の緑ボタンをクリックして縮小、緑色の三角印をクリックして隣りの地図に切り替え


METAR-TAF: